sensor_id;sensor_type;location;lat;lon;timestamp;P1;durP1;ratioP1;P2;durP2;ratioP2
2406;SDS011;37709;53.480;9.688;2022-08-19T00:00:07;5.97;;;5.00;;
2406;SDS011;37709;53.480;9.688;2022-08-19T00:02:37;5.63;;;5.13;;
2406;SDS011;37709;53.480;9.688;2022-08-19T00:05:16;5.10;;;4.60;;
2406;SDS011;37709;53.480;9.688;2022-08-19T00:07:45;5.80;;;4.80;;
2406;SDS011;37709;53.480;9.688;2022-08-19T00:10:13;6.60;;;4.50;;
2406;SDS011;37709;53.480;9.688;2022-08-19T00:12:42;5.03;;;4.53;;
2406;SDS011;37709;53.480;9.688;2022-08-19T00:15:14;5.53;;;5.03;;
2406;SDS011;37709;53.480;9.688;2022-08-19T00:17:43;7.07;;;4.37;;
2406;SDS011;37709;53.480;9.688;2022-08-19T00:20:14;4.97;;;4.07;;
2406;SDS011;37709;53.480;9.688;2022-08-19T00:22:45;4.67;;;4.20;;
2406;SDS011;37709;53.480;9.688;2022-08-19T00:25:14;4.50;;;4.07;;
2406;SDS011;37709;53.480;9.688;2022-08-19T00:27:43;5.57;;;4.80;;
2406;SDS011;37709;53.480;9.688;2022-08-19T00:30:11;6.47;;;4.77;;
2406;SDS011;37709;53.480;9.688;2022-08-19T00:32:39;5.70;;;5.20;;
2406;SDS011;37709;53.480;9.688;2022-08-19T00:35:06;7.00;;;5.30;;
2406;SDS011;37709;53.480;9.688;2022-08-19T00:37:37;6.03;;;5.10;;
2406;SDS011;37709;53.480;9.688;2022-08-19T00:40:10;4.80;;;4.40;;
2406;SDS011;37709;53.480;9.688;2022-08-19T00:42:38;5.33;;;4.60;;
2406;SDS011;37709;53.480;9.688;2022-08-19T00:45:12;4.80;;;4.30;;
2406;SDS011;37709;53.480;9.688;2022-08-19T00:47:41;5.33;;;4.83;;
2406;SDS011;37709;53.480;9.688;2022-08-19T00:50:10;4.57;;;4.20;;
2406;SDS011;37709;53.480;9.688;2022-08-19T00:52:43;5.87;;;5.30;;
2406;SDS011;37709;53.480;9.688;2022-08-19T00:55:22;5.70;;;5.07;;
2406;SDS011;37709;53.480;9.688;2022-08-19T00:57:52;6.33;;;4.43;;
2406;SDS011;37709;53.480;9.688;2022-08-19T01:00:25;4.90;;;4.50;;
2406;SDS011;37709;53.480;9.688;2022-08-19T01:02:54;5.40;;;5.00;;
2406;SDS011;37709;53.480;9.688;2022-08-19T01:05:23;5.90;;;5.30;;
2406;SDS011;37709;53.480;9.688;2022-08-19T01:07:54;5.40;;;4.40;;
2406;SDS011;37709;53.480;9.688;2022-08-19T01:10:25;5.67;;;4.90;;
2406;SDS011;37709;53.480;9.688;2022-08-19T01:13:02;4.80;;;4.40;;
2406;SDS011;37709;53.480;9.688;2022-08-19T01:15:38;6.33;;;5.07;;
2406;SDS011;37709;53.480;9.688;2022-08-19T01:18:11;7.83;;;5.07;;
2406;SDS011;37709;53.480;9.688;2022-08-19T01:20:41;4.63;;;4.23;;
2406;SDS011;37709;53.480;9.688;2022-08-19T01:23:09;7.20;;;5.60;;
2406;SDS011;37709;53.480;9.688;2022-08-19T01:25:50;5.50;;;4.93;;
2406;SDS011;37709;53.480;9.688;2022-08-19T01:28:22;5.90;;;4.93;;
2406;SDS011;37709;53.480;9.688;2022-08-19T01:31:06;5.57;;;5.07;;
2406;SDS011;37709;53.480;9.688;2022-08-19T01:33:55;5.83;;;5.33;;
2406;SDS011;37709;53.480;9.688;2022-08-19T01:36:31;6.00;;;5.50;;
2406;SDS011;37709;53.480;9.688;2022-08-19T01:39:03;6.10;;;4.90;;
2406;SDS011;37709;53.480;9.688;2022-08-19T01:44:29;5.47;;;4.73;;
2406;SDS011;37709;53.480;9.688;2022-08-19T01:46:57;5.87;;;5.17;;
2406;SDS011;37709;53.480;9.688;2022-08-19T01:49:25;6.37;;;5.17;;
2406;SDS011;37709;53.480;9.688;2022-08-19T01:51:53;7.10;;;5.50;;
2406;SDS011;37709;53.480;9.688;2022-08-19T01:54:22;6.30;;;5.80;;
2406;SDS011;37709;53.480;9.688;2022-08-19T01:56:55;6.03;;;5.23;;
2406;SDS011;37709;53.480;9.688;2022-08-19T01:59:30;5.93;;;5.43;;
2406;SDS011;37709;53.480;9.688;2022-08-19T02:01:59;6.60;;;6.03;;
2406;SDS011;37709;53.480;9.688;2022-08-19T02:04:26;6.10;;;5.47;;
2406;SDS011;37709;53.480;9.688;2022-08-19T02:06:54;7.07;;;6.03;;
2406;SDS011;37709;53.480;9.688;2022-08-19T02:09:21;6.40;;;5.83;;
2406;SDS011;37709;53.480;9.688;2022-08-19T02:11:48;8.03;;;6.70;;
2406;SDS011;37709;53.480;9.688;2022-08-19T02:14:16;6.73;;;6.13;;
2406;SDS011;37709;53.480;9.688;2022-08-19T02:16:43;6.30;;;5.70;;
2406;SDS011;37709;53.480;9.688;2022-08-19T02:19:11;6.07;;;5.47;;
2406;SDS011;37709;53.480;9.688;2022-08-19T02:21:39;8.30;;;6.33;;
2406;SDS011;37709;53.480;9.688;2022-08-19T02:24:07;7.20;;;6.50;;
2406;SDS011;37709;53.480;9.688;2022-08-19T02:26:34;8.20;;;7.40;;
2406;SDS011;37709;53.480;9.688;2022-08-19T02:29:02;7.13;;;6.43;;
2406;SDS011;37709;53.480;9.688;2022-08-19T02:31:29;7.60;;;6.30;;
2406;SDS011;37709;53.480;9.688;2022-08-19T02:33:57;7.00;;;6.40;;
2406;SDS011;37709;53.480;9.688;2022-08-19T02:36:25;8.80;;;6.60;;
2406;SDS011;37709;53.480;9.688;2022-08-19T02:38:54;6.33;;;5.73;;
2406;SDS011;37709;53.480;9.688;2022-08-19T02:41:25;7.97;;;6.70;;
2406;SDS011;37709;53.480;9.688;2022-08-19T02:43:55;8.40;;;6.80;;
2406;SDS011;37709;53.480;9.688;2022-08-19T02:46:45;7.93;;;7.07;;
2406;SDS011;37709;53.480;9.688;2022-08-19T02:49:14;6.90;;;6.30;;
2406;SDS011;37709;53.480;9.688;2022-08-19T02:51:44;7.50;;;6.80;;
2406;SDS011;37709;53.480;9.688;2022-08-19T02:54:13;9.23;;;6.40;;
2406;SDS011;37709;53.480;9.688;2022-08-19T02:56:42;11.67;;;7.07;;
2406;SDS011;37709;53.480;9.688;2022-08-19T02:59:11;6.20;;;5.67;;
2406;SDS011;37709;53.480;9.688;2022-08-19T03:01:40;7.67;;;6.40;;
2406;SDS011;37709;53.480;9.688;2022-08-19T03:04:10;10.50;;;6.17;;
2406;SDS011;37709;53.480;9.688;2022-08-19T03:06:43;7.37;;;6.27;;
2406;SDS011;37709;53.480;9.688;2022-08-19T03:09:12;8.93;;;6.17;;
2406;SDS011;37709;53.480;9.688;2022-08-19T03:11:39;6.23;;;5.63;;
2406;SDS011;37709;53.480;9.688;2022-08-19T03:14:08;7.57;;;6.70;;
2406;SDS011;37709;53.480;9.688;2022-08-19T03:16:44;10.70;;;5.67;;
2406;SDS011;37709;53.480;9.688;2022-08-19T03:19:13;9.03;;;6.30;;
2406;SDS011;37709;53.480;9.688;2022-08-19T03:21:43;7.23;;;6.20;;
2406;SDS011;37709;53.480;9.688;2022-08-19T03:24:11;9.83;;;6.17;;
2406;SDS011;37709;53.480;9.688;2022-08-19T03:26:42;9.23;;;6.23;;
2406;SDS011;37709;53.480;9.688;2022-08-19T03:29:11;8.40;;;6.17;;
2406;SDS011;37709;53.480;9.688;2022-08-19T03:31:40;6.83;;;6.13;;
2406;SDS011;37709;53.480;9.688;2022-08-19T03:34:20;9.10;;;6.97;;
2406;SDS011;37709;53.480;9.688;2022-08-19T03:36:50;6.53;;;5.80;;
2406;SDS011;37709;53.480;9.688;2022-08-19T03:39:17;9.90;;;7.33;;
2406;SDS011;37709;53.480;9.688;2022-08-19T03:41:45;9.27;;;8.33;;
2406;SDS011;37709;53.480;9.688;2022-08-19T03:44:35;9.80;;;6.80;;
2406;SDS011;37709;53.480;9.688;2022-08-19T03:47:05;9.70;;;7.70;;
2406;SDS011;37709;53.480;9.688;2022-08-19T03:49:33;8.27;;;7.27;;
2406;SDS011;37709;53.480;9.688;2022-08-19T03:52:02;7.13;;;6.43;;
2406;SDS011;37709;53.480;9.688;2022-08-19T03:54:34;8.40;;;6.77;;
2406;SDS011;37709;53.480;9.688;2022-08-19T03:57:02;8.13;;;7.20;;
2406;SDS011;37709;53.480;9.688;2022-08-19T03:59:31;9.83;;;7.77;;
2406;SDS011;37709;53.480;9.688;2022-08-19T04:02:00;9.07;;;7.37;;
2406;SDS011;37709;53.480;9.688;2022-08-19T04:04:29;8.13;;;7.30;;
2406;SDS011;37709;53.480;9.688;2022-08-19T04:06:58;11.37;;;6.93;;
2406;SDS011;37709;53.480;9.688;2022-08-19T04:09:26;9.33;;;7.77;;
2406;SDS011;37709;53.480;9.688;2022-08-19T04:11:54;13.40;;;8.40;;
2406;SDS011;37709;53.480;9.688;2022-08-19T04:14:23;9.23;;;7.80;;
2406;SDS011;37709;53.480;9.688;2022-08-19T04:16:53;9.03;;;7.60;;
2406;SDS011;37709;53.480;9.688;2022-08-19T04:19:20;11.53;;;8.30;;
2406;SDS011;37709;53.480;9.688;2022-08-19T04:21:51;9.37;;;8.07;;
2406;SDS011;37709;53.480;9.688;2022-08-19T04:24:21;13.90;;;8.57;;
2406;SDS011;37709;53.480;9.688;2022-08-19T04:26:49;10.47;;;7.70;;
2406;SDS011;37709;53.480;9.688;2022-08-19T04:29:18;9.27;;;7.77;;
2406;SDS011;37709;53.480;9.688;2022-08-19T04:31:49;11.97;;;8.00;;
2406;SDS011;37709;53.480;9.688;2022-08-19T04:34:17;11.90;;;7.90;;
2406;SDS011;37709;53.480;9.688;2022-08-19T04:36:49;8.00;;;7.20;;
2406;SDS011;37709;53.480;9.688;2022-08-19T04:39:20;9.87;;;7.83;;
2406;SDS011;37709;53.480;9.688;2022-08-19T04:41:49;9.73;;;7.63;;
2406;SDS011;37709;53.480;9.688;2022-08-19T04:44:36;9.00;;;7.50;;
2406;SDS011;37709;53.480;9.688;2022-08-19T04:47:12;8.40;;;7.50;;
2406;SDS011;37709;53.480;9.688;2022-08-19T04:49:40;8.37;;;7.30;;
2406;SDS011;37709;53.480;9.688;2022-08-19T04:52:08;10.63;;;7.10;;
2406;SDS011;37709;53.480;9.688;2022-08-19T04:54:35;8.67;;;7.77;;
2406;SDS011;37709;53.480;9.688;2022-08-19T04:57:06;8.73;;;7.93;;
2406;SDS011;37709;53.480;9.688;2022-08-19T04:59:37;9.77;;;7.13;;
2406;SDS011;37709;53.480;9.688;2022-08-19T05:02:06;9.60;;;8.10;;
2406;SDS011;37709;53.480;9.688;2022-08-19T05:04:35;8.00;;;7.20;;
2406;SDS011;37709;53.480;9.688;2022-08-19T05:07:06;8.20;;;7.40;;
2406;SDS011;37709;53.480;9.688;2022-08-19T05:09:34;8.57;;;7.77;;
2406;SDS011;37709;53.480;9.688;2022-08-19T05:12:22;11.80;;;7.57;;
2406;SDS011;37709;53.480;9.688;2022-08-19T05:14:56;9.30;;;7.43;;
2406;SDS011;37709;53.480;9.688;2022-08-19T05:17:25;7.57;;;6.87;;
2406;SDS011;37709;53.480;9.688;2022-08-19T05:19:59;9.87;;;8.17;;
2406;SDS011;37709;53.480;9.688;2022-08-19T05:22:46;14.57;;;7.50;;
2406;SDS011;37709;53.480;9.688;2022-08-19T05:25:17;7.90;;;7.13;;
2406;SDS011;37709;53.480;9.688;2022-08-19T05:27:46;9.67;;;7.73;;
2406;SDS011;37709;53.480;9.688;2022-08-19T05:30:15;9.73;;;7.17;;
2406;SDS011;37709;53.480;9.688;2022-08-19T05:32:43;7.77;;;7.07;;
2406;SDS011;37709;53.480;9.688;2022-08-19T05:35:10;8.30;;;7.57;;
2406;SDS011;37709;53.480;9.688;2022-08-19T05:37:39;8.23;;;7.43;;
2406;SDS011;37709;53.480;9.688;2022-08-19T05:40:09;9.10;;;6.83;;
2406;SDS011;37709;53.480;9.688;2022-08-19T05:42:37;8.57;;;7.53;;
2406;SDS011;37709;53.480;9.688;2022-08-19T05:45:09;8.93;;;7.87;;
2406;SDS011;37709;53.480;9.688;2022-08-19T05:47:39;10.60;;;7.10;;
2406;SDS011;37709;53.480;9.688;2022-08-19T05:50:08;7.27;;;6.53;;
2406;SDS011;37709;53.480;9.688;2022-08-19T05:52:36;9.37;;;6.83;;
2406;SDS011;37709;53.480;9.688;2022-08-19T05:55:20;7.50;;;6.80;;
2406;SDS011;37709;53.480;9.688;2022-08-19T05:57:47;10.40;;;7.03;;
2406;SDS011;37709;53.480;9.688;2022-08-19T06:00:16;8.50;;;6.77;;
2406;SDS011;37709;53.480;9.688;2022-08-19T06:02:49;10.50;;;7.13;;
2406;SDS011;37709;53.480;9.688;2022-08-19T06:05:18;8.20;;;6.33;;
2406;SDS011;37709;53.480;9.688;2022-08-19T06:07:46;9.23;;;6.77;;
2406;SDS011;37709;53.480;9.688;2022-08-19T06:10:14;9.00;;;6.70;;
2406;SDS011;37709;53.480;9.688;2022-08-19T06:12:41;7.50;;;6.80;;
2406;SDS011;37709;53.480;9.688;2022-08-19T06:15:10;7.67;;;6.97;;
2406;SDS011;37709;53.480;9.688;2022-08-19T06:17:38;7.90;;;5.60;;
2406;SDS011;37709;53.480;9.688;2022-08-19T06:20:08;6.10;;;5.50;;
2406;SDS011;37709;53.480;9.688;2022-08-19T06:22:41;7.37;;;6.20;;
2406;SDS011;37709;53.480;9.688;2022-08-19T06:25:11;8.03;;;6.07;;
2406;SDS011;37709;53.480;9.688;2022-08-19T06:27:41;6.43;;;5.80;;
2406;SDS011;37709;53.480;9.688;2022-08-19T06:30:29;10.40;;;6.80;;
2406;SDS011;37709;53.480;9.688;2022-08-19T06:32:56;9.00;;;7.73;;
2406;SDS011;37709;53.480;9.688;2022-08-19T06:35:24;7.03;;;6.43;;
2406;SDS011;37709;53.480;9.688;2022-08-19T06:37:52;8.20;;;7.40;;
2406;SDS011;37709;53.480;9.688;2022-08-19T06:40:20;6.90;;;6.23;;
2406;SDS011;37709;53.480;9.688;2022-08-19T06:42:48;7.60;;;6.90;;
2406;SDS011;37709;53.480;9.688;2022-08-19T06:45:21;10.20;;;7.40;;
2406;SDS011;37709;53.480;9.688;2022-08-19T06:48:00;9.20;;;6.40;;
2406;SDS011;37709;53.480;9.688;2022-08-19T06:50:29;7.80;;;7.00;;
2406;SDS011;37709;53.480;9.688;2022-08-19T06:52:56;7.07;;;6.47;;
2406;SDS011;37709;53.480;9.688;2022-08-19T06:55:30;7.80;;;7.00;;
2406;SDS011;37709;53.480;9.688;2022-08-19T06:58:01;7.73;;;6.90;;
2406;SDS011;37709;53.480;9.688;2022-08-19T07:00:30;8.47;;;7.27;;
2406;SDS011;37709;53.480;9.688;2022-08-19T07:02:59;6.77;;;6.00;;
2406;SDS011;37709;53.480;9.688;2022-08-19T07:05:37;8.00;;;6.67;;
2406;SDS011;37709;53.480;9.688;2022-08-19T07:08:12;6.43;;;5.93;;
2406;SDS011;37709;53.480;9.688;2022-08-19T07:10:42;8.30;;;6.73;;
2406;SDS011;37709;53.480;9.688;2022-08-19T07:13:11;8.43;;;7.23;;
2406;SDS011;37709;53.480;9.688;2022-08-19T07:15:39;8.60;;;6.70;;
2406;SDS011;37709;53.480;9.688;2022-08-19T07:18:06;7.83;;;7.03;;
2406;SDS011;37709;53.480;9.688;2022-08-19T07:20:38;8.30;;;7.50;;
2406;SDS011;37709;53.480;9.688;2022-08-19T07:23:08;7.77;;;6.97;;
2406;SDS011;37709;53.480;9.688;2022-08-19T07:25:42;9.13;;;7.17;;
2406;SDS011;37709;53.480;9.688;2022-08-19T07:28:10;6.87;;;6.27;;
2406;SDS011;37709;53.480;9.688;2022-08-19T07:30:50;8.90;;;8.20;;
2406;SDS011;37709;53.480;9.688;2022-08-19T07:33:19;9.70;;;7.93;;
2406;SDS011;37709;53.480;9.688;2022-08-19T07:35:47;8.70;;;7.80;;
2406;SDS011;37709;53.480;9.688;2022-08-19T07:38:16;9.20;;;8.20;;
2406;SDS011;37709;53.480;9.688;2022-08-19T07:40:44;9.03;;;8.00;;
2406;SDS011;37709;53.480;9.688;2022-08-19T07:43:13;9.33;;;8.30;;
2406;SDS011;37709;53.480;9.688;2022-08-19T07:45:44;8.03;;;6.97;;
2406;SDS011;37709;53.480;9.688;2022-08-19T07:48:12;9.70;;;8.43;;
2406;SDS011;37709;53.480;9.688;2022-08-19T07:50:41;14.17;;;9.07;;
2406;SDS011;37709;53.480;9.688;2022-08-19T07:53:09;10.63;;;8.37;;
2406;SDS011;37709;53.480;9.688;2022-08-19T07:55:38;9.83;;;8.27;;
2406;SDS011;37709;53.480;9.688;2022-08-19T07:58:11;10.30;;;8.13;;
2406;SDS011;37709;53.480;9.688;2022-08-19T08:00:40;10.10;;;9.10;;
2406;SDS011;37709;53.480;9.688;2022-08-19T08:03:12;9.77;;;8.77;;
2406;SDS011;37709;53.480;9.688;2022-08-19T08:05:41;10.30;;;9.30;;
2406;SDS011;37709;53.480;9.688;2022-08-19T08:08:27;9.33;;;7.83;;
2406;SDS011;37709;53.480;9.688;2022-08-19T08:11:18;9.70;;;8.80;;
2406;SDS011;37709;53.480;9.688;2022-08-19T08:13:49;10.37;;;8.70;;
2406;SDS011;37709;53.480;9.688;2022-08-19T08:16:34;9.27;;;8.37;;
2406;SDS011;37709;53.480;9.688;2022-08-19T08:19:13;11.23;;;9.10;;
2406;SDS011;37709;53.480;9.688;2022-08-19T08:21:52;9.30;;;8.40;;
2406;SDS011;37709;53.480;9.688;2022-08-19T08:24:22;8.73;;;7.87;;
2406;SDS011;37709;53.480;9.688;2022-08-19T08:26:54;9.03;;;8.20;;
2406;SDS011;37709;53.480;9.688;2022-08-19T08:29:24;10.27;;;7.70;;
2406;SDS011;37709;53.480;9.688;2022-08-19T08:32:00;10.30;;;8.90;;
2406;SDS011;37709;53.480;9.688;2022-08-19T08:34:28;9.43;;;8.57;;
2406;SDS011;37709;53.480;9.688;2022-08-19T08:36:56;8.70;;;6.73;;
2406;SDS011;37709;53.480;9.688;2022-08-19T08:39:23;11.13;;;9.10;;
2406;SDS011;37709;53.480;9.688;2022-08-19T08:42:12;8.23;;;7.20;;
2406;SDS011;37709;53.480;9.688;2022-08-19T08:47:28;11.23;;;8.53;;
2406;SDS011;37709;53.480;9.688;2022-08-19T08:50:06;8.93;;;8.07;;
2406;SDS011;37709;53.480;9.688;2022-08-19T08:52:41;9.83;;;8.30;;
2406;SDS011;37709;53.480;9.688;2022-08-19T08:55:14;10.17;;;8.33;;
2406;SDS011;37709;53.480;9.688;2022-08-19T09:00:26;8.63;;;7.70;;
2406;SDS011;37709;53.480;9.688;2022-08-19T09:02:57;7.53;;;6.83;;
2406;SDS011;37709;53.480;9.688;2022-08-19T09:05:30;8.20;;;7.40;;
2406;SDS011;37709;53.480;9.688;2022-08-19T09:08:33;11.10;;;7.53;;
2406;SDS011;37709;53.480;9.688;2022-08-19T09:11:04;9.33;;;7.80;;
2406;SDS011;37709;53.480;9.688;2022-08-19T09:13:53;9.20;;;7.70;;
2406;SDS011;37709;53.480;9.688;2022-08-19T09:17:12;8.23;;;7.43;;
2406;SDS011;37709;53.480;9.688;2022-08-19T09:19:52;8.30;;;7.33;;
2406;SDS011;37709;53.480;9.688;2022-08-19T09:22:36;8.17;;;7.37;;
2406;SDS011;37709;53.480;9.688;2022-08-19T09:25:06;8.67;;;7.80;;
2406;SDS011;37709;53.480;9.688;2022-08-19T09:27:37;8.07;;;7.27;;
2406;SDS011;37709;53.480;9.688;2022-08-19T09:30:20;9.07;;;8.17;;
2406;SDS011;37709;53.480;9.688;2022-08-19T09:32:52;7.50;;;6.80;;
2406;SDS011;37709;53.480;9.688;2022-08-19T09:35:21;7.50;;;6.90;;
2406;SDS011;37709;53.480;9.688;2022-08-19T09:37:50;8.70;;;6.87;;
2406;SDS011;37709;53.480;9.688;2022-08-19T09:40:26;7.93;;;7.13;;
2406;SDS011;37709;53.480;9.688;2022-08-19T09:42:56;8.80;;;8.00;;
2406;SDS011;37709;53.480;9.688;2022-08-19T09:45:35;8.90;;;7.90;;
2406;SDS011;37709;53.480;9.688;2022-08-19T09:48:03;8.27;;;7.57;;
2406;SDS011;37709;53.480;9.688;2022-08-19T09:50:32;10.70;;;9.60;;
2406;SDS011;37709;53.480;9.688;2022-08-19T09:53:01;8.27;;;7.57;;
2406;SDS011;37709;53.480;9.688;2022-08-19T09:55:32;8.97;;;8.07;;
2406;SDS011;37709;53.480;9.688;2022-08-19T09:58:01;9.73;;;8.77;;
2406;SDS011;37709;53.480;9.688;2022-08-19T10:00:29;9.10;;;8.30;;
2406;SDS011;37709;53.480;9.688;2022-08-19T10:02:58;9.27;;;8.37;;
2406;SDS011;37709;53.480;9.688;2022-08-19T10:05:26;9.97;;;8.87;;
2406;SDS011;37709;53.480;9.688;2022-08-19T10:08:16;9.90;;;9.00;;
2406;SDS011;37709;53.480;9.688;2022-08-19T10:10:46;10.13;;;9.20;;
2406;SDS011;37709;53.480;9.688;2022-08-19T10:13:16;11.13;;;10.13;;
2406;SDS011;37709;53.480;9.688;2022-08-19T10:15:48;10.57;;;9.57;;
2406;SDS011;37709;53.480;9.688;2022-08-19T10:18:21;9.93;;;8.37;;
2406;SDS011;37709;53.480;9.688;2022-08-19T10:20:51;9.80;;;8.90;;
2406;SDS011;37709;53.480;9.688;2022-08-19T10:23:20;11.87;;;8.80;;
2406;SDS011;37709;53.480;9.688;2022-08-19T10:25:48;9.90;;;8.97;;
2406;SDS011;37709;53.480;9.688;2022-08-19T10:28:16;9.97;;;9.07;;
2406;SDS011;37709;53.480;9.688;2022-08-19T10:30:45;11.73;;;9.30;;
2406;SDS011;37709;53.480;9.688;2022-08-19T10:33:14;10.57;;;9.47;;
2406;SDS011;37709;53.480;9.688;2022-08-19T10:36:03;9.87;;;9.07;;
2406;SDS011;37709;53.480;9.688;2022-08-19T10:38:36;10.90;;;9.77;;
2406;SDS011;37709;53.480;9.688;2022-08-19T10:41:11;10.87;;;9.77;;
2406;SDS011;37709;53.480;9.688;2022-08-19T10:43:44;9.30;;;8.40;;
2406;SDS011;37709;53.480;9.688;2022-08-19T10:46:13;11.73;;;10.63;;
2406;SDS011;37709;53.480;9.688;2022-08-19T10:48:43;12.27;;;10.00;;
2406;SDS011;37709;53.480;9.688;2022-08-19T10:51:11;10.33;;;9.33;;
2406;SDS011;37709;53.480;9.688;2022-08-19T10:53:59;8.80;;;7.90;;
2406;SDS011;37709;53.480;9.688;2022-08-19T10:56:27;9.40;;;8.20;;
2406;SDS011;37709;53.480;9.688;2022-08-19T10:59:14;9.00;;;8.20;;
2406;SDS011;37709;53.480;9.688;2022-08-19T11:01:44;8.20;;;7.40;;
2406;SDS011;37709;53.480;9.688;2022-08-19T11:04:13;9.77;;;8.77;;
2406;SDS011;37709;53.480;9.688;2022-08-19T11:06:43;9.73;;;8.83;;
2406;SDS011;37709;53.480;9.688;2022-08-19T11:09:15;11.23;;;9.30;;
2406;SDS011;37709;53.480;9.688;2022-08-19T11:11:59;8.40;;;7.70;;
2406;SDS011;37709;53.480;9.688;2022-08-19T11:14:30;10.37;;;9.30;;
2406;SDS011;37709;53.480;9.688;2022-08-19T11:17:01;9.47;;;8.67;;
2406;SDS011;37709;53.480;9.688;2022-08-19T11:19:30;9.10;;;8.20;;
2406;SDS011;37709;53.480;9.688;2022-08-19T11:21:58;10.00;;;9.07;;
2406;SDS011;37709;53.480;9.688;2022-08-19T11:24:29;10.07;;;9.13;;
2406;SDS011;37709;53.480;9.688;2022-08-19T11:27:00;9.53;;;8.53;;
2406;SDS011;37709;53.480;9.688;2022-08-19T11:29:33;10.90;;;9.00;;
2406;SDS011;37709;53.480;9.688;2022-08-19T11:32:05;10.63;;;9.70;;
2406;SDS011;37709;53.480;9.688;2022-08-19T11:34:35;10.40;;;9.40;;
2406;SDS011;37709;53.480;9.688;2022-08-19T11:37:03;9.07;;;8.27;;
2406;SDS011;37709;53.480;9.688;2022-08-19T11:39:33;9.70;;;8.80;;
2406;SDS011;37709;53.480;9.688;2022-08-19T11:42:04;10.00;;;9.07;;
2406;SDS011;37709;53.480;9.688;2022-08-19T11:44:57;11.83;;;10.63;;
2406;SDS011;37709;53.480;9.688;2022-08-19T11:47:24;11.13;;;10.00;;
2406;SDS011;37709;53.480;9.688;2022-08-19T11:49:53;9.63;;;8.63;;
2406;SDS011;37709;53.480;9.688;2022-08-19T11:52:20;9.67;;;8.57;;
2406;SDS011;37709;53.480;9.688;2022-08-19T11:54:48;9.63;;;8.73;;
2406;SDS011;37709;53.480;9.688;2022-08-19T11:57:15;8.37;;;7.67;;
2406;SDS011;37709;53.480;9.688;2022-08-19T11:59:47;9.40;;;8.60;;
2406;SDS011;37709;53.480;9.688;2022-08-19T12:02:16;10.60;;;9.63;;
2406;SDS011;37709;53.480;9.688;2022-08-19T12:04:44;10.23;;;9.33;;
2406;SDS011;37709;53.480;9.688;2022-08-19T12:07:12;11.17;;;10.27;;
2406;SDS011;37709;53.480;9.688;2022-08-19T12:09:39;8.70;;;7.90;;
2406;SDS011;37709;53.480;9.688;2022-08-19T12:12:09;8.97;;;8.27;;
2406;SDS011;37709;53.480;9.688;2022-08-19T12:14:36;8.93;;;8.17;;
2406;SDS011;37709;53.480;9.688;2022-08-19T12:17:04;8.30;;;7.60;;
2406;SDS011;37709;53.480;9.688;2022-08-19T12:19:35;9.70;;;8.90;;
2406;SDS011;37709;53.480;9.688;2022-08-19T12:22:03;8.80;;;8.00;;
2406;SDS011;37709;53.480;9.688;2022-08-19T12:24:33;8.07;;;7.27;;
2406;SDS011;37709;53.480;9.688;2022-08-19T12:27:01;8.93;;;8.13;;
2406;SDS011;37709;53.480;9.688;2022-08-19T12:29:29;9.00;;;8.30;;
2406;SDS011;37709;53.480;9.688;2022-08-19T12:31:57;8.70;;;7.90;;
2406;SDS011;37709;53.480;9.688;2022-08-19T12:34:30;9.10;;;8.30;;
2406;SDS011;37709;53.480;9.688;2022-08-19T12:37:00;8.63;;;7.93;;
2406;SDS011;37709;53.480;9.688;2022-08-19T12:39:29;8.63;;;7.90;;
2406;SDS011;37709;53.480;9.688;2022-08-19T12:42:00;8.30;;;7.60;;
2406;SDS011;37709;53.480;9.688;2022-08-19T12:44:28;9.40;;;8.70;;
2406;SDS011;37709;53.480;9.688;2022-08-19T12:46:59;8.47;;;7.67;;
2406;SDS011;37709;53.480;9.688;2022-08-19T12:49:29;8.77;;;8.07;;
2406;SDS011;37709;53.480;9.688;2022-08-19T12:52:18;8.67;;;8.07;;
2406;SDS011;37709;53.480;9.688;2022-08-19T12:54:50;9.07;;;8.37;;
2406;SDS011;37709;53.480;9.688;2022-08-19T12:57:22;7.97;;;7.30;;
2406;SDS011;37709;53.480;9.688;2022-08-19T13:00:04;8.80;;;8.10;;
2406;SDS011;37709;53.480;9.688;2022-08-19T13:02:41;8.53;;;7.87;;
2406;SDS011;37709;53.480;9.688;2022-08-19T13:05:12;8.27;;;7.47;;
2406;SDS011;37709;53.480;9.688;2022-08-19T13:07:43;7.93;;;7.33;;
2406;SDS011;37709;53.480;9.688;2022-08-19T13:10:11;8.20;;;7.50;;
2406;SDS011;37709;53.480;9.688;2022-08-19T13:12:45;7.47;;;6.87;;
2406;SDS011;37709;53.480;9.688;2022-08-19T13:15:14;7.50;;;6.83;;
2406;SDS011;37709;53.480;9.688;2022-08-19T13:17:50;6.83;;;6.13;;
2406;SDS011;37709;53.480;9.688;2022-08-19T13:20:19;6.33;;;5.93;;
2406;SDS011;37709;53.480;9.688;2022-08-19T13:22:48;7.20;;;6.70;;
2406;SDS011;37709;53.480;9.688;2022-08-19T13:25:16;7.57;;;7.03;;
2406;SDS011;37709;53.480;9.688;2022-08-19T13:27:47;6.97;;;6.37;;
2406;SDS011;37709;53.480;9.688;2022-08-19T13:30:16;8.00;;;7.20;;
2406;SDS011;37709;53.480;9.688;2022-08-19T13:33:05;7.80;;;7.20;;
2406;SDS011;37709;53.480;9.688;2022-08-19T13:35:47;7.80;;;7.20;;
2406;SDS011;37709;53.480;9.688;2022-08-19T13:38:23;7.40;;;6.80;;
2406;SDS011;37709;53.480;9.688;2022-08-19T13:40:52;7.43;;;6.80;;
2406;SDS011;37709;53.480;9.688;2022-08-19T13:43:21;7.93;;;7.27;;
2406;SDS011;37709;53.480;9.688;2022-08-19T13:45:52;7.43;;;6.83;;
2406;SDS011;37709;53.480;9.688;2022-08-19T13:48:22;7.03;;;6.40;;
2406;SDS011;37709;53.480;9.688;2022-08-19T13:50:53;6.30;;;5.90;;
2406;SDS011;37709;53.480;9.688;2022-08-19T13:53:21;6.87;;;6.27;;
2406;SDS011;37709;53.480;9.688;2022-08-19T13:55:49;6.90;;;6.30;;
2406;SDS011;37709;53.480;9.688;2022-08-19T13:58:17;6.80;;;6.20;;
2406;SDS011;37709;53.480;9.688;2022-08-19T14:00:45;8.07;;;7.47;;
2406;SDS011;37709;53.480;9.688;2022-08-19T14:03:13;7.20;;;6.63;;
2406;SDS011;37709;53.480;9.688;2022-08-19T14:05:42;6.80;;;6.30;;
2406;SDS011;37709;53.480;9.688;2022-08-19T14:08:09;7.77;;;7.17;;
2406;SDS011;37709;53.480;9.688;2022-08-19T14:10:36;7.37;;;6.77;;
2406;SDS011;37709;53.480;9.688;2022-08-19T14:13:04;7.30;;;6.70;;
2406;SDS011;37709;53.480;9.688;2022-08-19T14:15:31;7.43;;;6.80;;
2406;SDS011;37709;53.480;9.688;2022-08-19T14:17:59;7.53;;;6.83;;
2406;SDS011;37709;53.480;9.688;2022-08-19T14:20:27;7.97;;;7.37;;
2406;SDS011;37709;53.480;9.688;2022-08-19T14:22:55;7.97;;;7.37;;
2406;SDS011;37709;53.480;9.688;2022-08-19T14:25:25;9.13;;;7.70;;
2406;SDS011;37709;53.480;9.688;2022-08-19T14:27:54;6.70;;;6.20;;
2406;SDS011;37709;53.480;9.688;2022-08-19T14:30:26;7.83;;;7.07;;
2406;SDS011;37709;53.480;9.688;2022-08-19T14:33:00;6.50;;;6.00;;
2406;SDS011;37709;53.480;9.688;2022-08-19T14:35:29;7.27;;;6.67;;
2406;SDS011;37709;53.480;9.688;2022-08-19T14:38:01;6.70;;;6.20;;
2406;SDS011;37709;53.480;9.688;2022-08-19T14:40:32;5.63;;;5.20;;
2406;SDS011;37709;53.480;9.688;2022-08-19T14:43:00;5.40;;;5.00;;
2406;SDS011;37709;53.480;9.688;2022-08-19T14:45:32;7.70;;;7.00;;
2406;SDS011;37709;53.480;9.688;2022-08-19T14:48:07;6.20;;;5.70;;
2406;SDS011;37709;53.480;9.688;2022-08-19T14:50:45;6.90;;;6.30;;
2406;SDS011;37709;53.480;9.688;2022-08-19T14:53:12;6.53;;;6.00;;
2406;SDS011;37709;53.480;9.688;2022-08-19T14:55:40;6.13;;;5.73;;
2406;SDS011;37709;53.480;9.688;2022-08-19T14:58:10;6.90;;;6.40;;
2406;SDS011;37709;53.480;9.688;2022-08-19T15:00:57;6.23;;;5.73;;
2406;SDS011;37709;53.480;9.688;2022-08-19T15:03:27;6.73;;;6.23;;
2406;SDS011;37709;53.480;9.688;2022-08-19T15:05:57;7.00;;;6.50;;
2406;SDS011;37709;53.480;9.688;2022-08-19T15:08:27;7.10;;;6.60;;
2406;SDS011;37709;53.480;9.688;2022-08-19T15:10:56;7.50;;;7.00;;
2406;SDS011;37709;53.480;9.688;2022-08-19T15:13:25;6.70;;;6.20;;
2406;SDS011;37709;53.480;9.688;2022-08-19T15:15:54;5.60;;;5.20;;
2406;SDS011;37709;53.480;9.688;2022-08-19T15:18:24;5.60;;;5.20;;
2406;SDS011;37709;53.480;9.688;2022-08-19T15:20:51;5.10;;;4.70;;
2406;SDS011;37709;53.480;9.688;2022-08-19T15:23:19;5.87;;;5.57;;
2406;SDS011;37709;53.480;9.688;2022-08-19T15:25:48;5.80;;;5.30;;
2406;SDS011;37709;53.480;9.688;2022-08-19T15:28:23;5.73;;;5.33;;
2406;SDS011;37709;53.480;9.688;2022-08-19T15:30:52;6.13;;;5.73;;
2406;SDS011;37709;53.480;9.688;2022-08-19T15:33:19;5.50;;;5.10;;